CW1575 Weather Reports


Display with metric or nautical units.
time (UTC)temp
F
wind
direction
speed
MPH
gust
MPH
rain 1hr
in
rain 24hr
in
rain mn
in
humidity
%
barometer
mb
20170329131000 36 343 1.0 3.0 0.00 0.05 0.01 94 1019.7
20170329130500 36 348 1.0 3.0 0.00 0.05 0.01 94 1019.6
20170329125959 36 354 1.0 3.0 0.00 0.05 0.01 94 1019.8
20170329125459 36 346 1.0 3.0 0.00 0.05 0.01 94 1020.0
20170329125000 36 346 1.0 3.0 0.00 0.05 0.01 94 1020.0
20170329124459 36 311 1.0 5.0 0.00 0.05 0.01 94 1019.9
20170329124000 36 309 3.0 3.0 0.00 0.05 0.01 95 1019.9
20170329123500 36 330 2.0 3.0 0.00 0.05 0.01 94 1019.9
20170329122959 36 325 1.0 3.0 0.00 0.05 0.01 94 1020.0
20170329122459 36 323 2.0 3.0 0.00 0.05 0.01 94 1019.9
20170329122000 36 311 3.0 7.0 0.00 0.05 0.01 94 1019.9
20170329121459 36 338 2.0 5.0 0.00 0.05 0.01 94 1019.8
20170329121000 36 304 0.0 3.0 0.00 0.05 0.01 95 1019.7
20170329120500 36 325 1.0 5.0 0.00 0.05 0.01 95 1019.5
20170329115959 36 355 1.0 6.0 0.00 0.05 0.01 95 1019.5
20170329115459 36 309 2.0 8.0 0.00 0.05 0.01 95 1019.5
20170329114959 36 344 1.0 3.0 0.00 0.05 0.01 95 1019.4
20170329114500 36 298 2.0 5.0 0.00 0.05 0.01 95 1019.5
20170329113959 36 317 1.0 3.0 0.00 0.05 0.01 95 1019.3
20170329113459 35 321 1.0 6.0 0.00 0.05 0.01 95 1019.3
20170329112959 35 344 1.0 3.0 0.00 0.05 0.01 95 1019.2
20170329112459 35 347 1.0 5.0 0.00 0.05 0.01 95 1019.4
20170329111959 35 343 1.0 3.0 0.00 0.05 0.01 95 1019.4
20170329111500 35 338 2.0 3.0 0.00 0.05 0.01 95 1019.2
20170329111000 35 341 3.0 7.0 0.00 0.05 0.01 95 1019.2
20170329110459 35 326 1.0 5.0 0.00 0.05 0.01 95 1019.2
20170329110000 35 335 3.0 5.0 0.00 0.05 0.01 95 1019.2
20170329105459 35 305 1.0 5.0 0.00 0.05 0.01 95 1019.2
20170329104959 35 339 2.0 5.0 0.00 0.05 0.01 95 1019.2
20170329104459 35 346 2.0 5.0 0.00 0.05 0.01 95 1019.2
20170329104000 35 311 2.0 3.0 0.00 0.05 0.01 95 1019.1
20170329103459 35 330 2.0 7.0 0.00 0.05 0.01 95 1019.0
20170329102959 35 308 2.0 6.0 0.00 0.05 0.01 95 1019.0
20170329102500 35 336 2.0 5.0 0.01 0.05 0.01 95 1019.0
20170329102000 35 327 2.0 3.0 0.01 0.05 0.01 95 1018.9
20170329101459 35 338 0.0 6.0 0.01 0.05 0.01 94 1018.9
20170329101000 35 315 2.0 5.0 0.01 0.05 0.01 94 1019.0
20170329100501 35 315 2.0 5.0 0.01 0.05 0.01 94 1019.3
20170329100000 35 336 2.0 3.0 0.01 0.05 0.01 94 1019.3
20170329095459 35 345 3.0 8.0 0.01 0.05 0.01 94 1019.5
20170329094959 35 335 3.0 10.0 0.01 0.05 0.01 94 1019.6
20170329094459 35 317 1.0 5.0 0.01 0.05 0.01 94 1019.5
20170329094000 35 329 3.0 6.0 0.01 0.05 0.01 94 1019.6
20170329093459 35 355 2.0 7.0 0.01 0.05 0.01 94 1019.8
20170329093000 35 13 2.0 5.0 0.01 0.05 0.01 94 1019.7
20170329092459 35 12 5.0 12.0 0.00 0.04 0.00 94 1019.8
20170329091959 35 13 1.0 3.0 0.00 0.04 0.00 94 1019.8
20170329091505 35 16 1.0 10.0 0.00 0.04 0.00 94 1019.8
20170329091000 35 9 2.0 8.0 0.00 0.04 0.00 94 1019.7
20170329090500 35 19 3.0 9.0 0.00 0.04 0.00 94 1019.7
20170329085959 35 33 4.0 6.0 0.00 0.04 0.00 94 1019.6
20170329085500 35 3 2.0 9.0 0.00 0.04 0.00 94 1019.5
20170329085000 35 28 2.0 9.0 0.00 0.04 0.00 94 1019.4
20170329084500 35 22 1.0 7.0 0.00 0.04 0.00 94 1019.3
20170329084000 35 12 5.0 10.0 0.00 0.04 0.00 94 1019.4
20170329083500 35 6 3.0 10.0 0.00 0.04 0.00 94 1019.4
20170329083000 35 1 2.0 8.0 0.00 0.04 0.00 94 1019.3
20170329082500 35 33 2.0 8.0 0.00 0.04 0.00 94 1019.1
20170329081959 35 38 3.0 8.0 0.00 0.04 0.00 94 1019.0
20170329081500 35 38 5.0 10.0 0.00 0.04 0.00 94 1018.9
20170329080959 36 34 5.0 13.0 0.00 0.04 0.00 94 1018.9
20170329080500 35 24 2.0 7.0 0.00 0.04 0.00 94 1018.8
20170329080000 36 351 6.0 10.0 0.00 0.04 0.00 94 1019.2
20170329075459 36 333 2.0 6.0 0.00 0.04 0.00 94 1019.3
20170329074959 36 24 5.0 10.0 0.00 0.04 0.00 94 1019.1
20170329074459 36 30 3.0 9.0 0.00 0.04 0.00 94 1019.1
20170329074000 36 17 5.0 8.0 0.00 0.04 0.00 94 1019.2
20170329073459 36 15 3.0 9.0 0.00 0.04 0.00 94 1019.1
20170329072959 36 12 3.0 9.0 0.00 0.04 0.00 94 1019.0
20170329072500 36 10 5.0 9.0 0.00 0.04 0.00 94 1019.0
20170329071959 36 21 4.0 9.0 0.00 0.04 0.00 94 1019.0
20170329071500 36 32 3.0 8.0 0.00 0.04 0.00 94 1019.0
20170329071000 36 15 6.0 10.0 0.00 0.04 0.00 94 1019.0
20170329070459 36 326 2.0 5.0 0.00 0.04 0.00 94 1018.9
20170329070000 36 32 2.0 8.0 0.00 0.04 0.00 93 1019.1
20170329065459 36 25 4.0 12.0 0.00 0.04 0.00 93 1019.2
20170329065000 36 24 7.0 15.0 0.00 0.04 0.00 93 1019.3
20170329064500 36 22 6.0 14.0 0.00 0.04 0.00 93 1019.3
20170329064000 37 26 6.0 15.0 0.00 0.04 0.00 93 1019.5
20170329063459 37 34 7.0 14.0 0.00 0.04 0.00 93 1019.5
20170329062959 37 35 5.0 12.0 0.00 0.04 0.00 93 1019.4
20170329062459 37 4 7.0 14.0 0.00 0.04 0.00 93 1019.1
20170329062000 37 14 4.0 10.0 0.00 0.04 0.00 93 1018.9
20170329061459 37 354 3.0 9.0 0.00 0.04 0.00 93 1018.6
20170329061000 37 27 6.0 15.0 0.00 0.04 0.00 93 1018.6
20170329060500 37 358 5.0 12.0 0.00 0.04 0.00 93 1018.7
20170329055959 37 27 8.0 16.0 0.00 0.04 0.00 93 1018.6
20170329055500 37 7 5.0 13.0 0.00 0.04 0.04 93 1018.5
20170329055000 37 13 3.0 13.0 0.00 0.04 0.04 92 1018.4
20170329054459 37 19 6.0 13.0 0.00 0.04 0.04 93 1018.4
20170329053959 37 0 8.0 17.0 0.00 0.04 0.04 93 1018.1
20170329053459 37 0 7.0 16.0 0.00 0.04 0.04 92 1018.0
20170329052959 37 356 7.0 15.0 0.00 0.04 0.04 92 1017.6
20170329052500 37 335 7.0 15.0 0.00 0.04 0.04 92 1016.6
20170329052000 37 5 5.0 10.0 0.00 0.04 0.04 92 1016.9
20170329051459 37 350 5.0 12.0 0.00 0.04 0.04 92 1017.6
20170329050959 37 353 5.0 12.0 0.00 0.04 0.04 92 1018.0
20170329050459 37 349 6.0 14.0 0.00 0.04 0.04 92 1018.4
20170329045959 38 345 6.0 13.0 0.00 0.04 0.04 92 1018.7
20170329045459 38 1 6.0 13.0 0.00 0.04 0.04 91 1018.8
20170329044959 38 342 6.0 13.0 0.00 0.04 0.04 91 1018.6
20170329044459 38 352 7.0 18.0 0.00 0.04 0.04 91 1018.3
20170329043959 38 340 7.0 13.0 0.00 0.04 0.04 91 1018.4
20170329043459 38 335 10.0 17.0 0.00 0.04 0.04 90 1018.4
20170329042959 38 9 9.0 17.0 0.00 0.04 0.04 91 1018.5
20170329042500 38 344 6.0 16.0 0.00 0.04 0.04 91 1018.5
20170329041959 38 353 7.0 13.0 0.00 0.04 0.04 90 1018.4
20170329041500 39 345 9.0 18.0 0.00 0.04 0.04 90 1018.5
20170329041000 39 334 7.0 12.0 0.00 0.04 0.04 90 1018.2
20170329040459 39 348 10.0 16.0 0.00 0.04 0.04 90 1018.0
20170329035959 39 336 7.0 15.0 0.00 0.04 0.04 90 1017.9
20170329035459 39 328 6.0 14.0 0.00 0.05 0.04 89 1017.7
20170329034959 39 327 8.0 16.0 0.00 0.05 0.04 89 1017.7
20170329034500 39 315 8.0 17.0 0.00 0.05 0.04 89 1017.6
20170329033959 39 331 10.0 20.0 0.00 0.05 0.04 88 1017.5
20170329033500 39 326 9.0 18.0 0.00 0.05 0.04 88 1017.4
20170329033000 39 321 9.0 17.0 0.00 0.05 0.04 88 1017.2
20170329032500 39 327 7.0 16.0 0.00 0.05 0.04 88 1017.1
20170329031959 39 333 8.0 16.0 0.00 0.05 0.04 88 1017.1
20170329031459 39 349 5.0 13.0 0.00 0.05 0.04 88 1017.0
20170329031000 39 349 9.0 16.0 0.00 0.05 0.04 87 1017.0
20170329030459 39 331 10.0 16.0 0.00 0.05 0.04 87 1016.8
20170329030000 39 316 9.0 20.0 0.00 0.05 0.04 88 1016.7
20170329025459 39 321 9.0 22.0 0.00 0.05 0.04 88 1016.6
20170329024959 39 330 10.0 23.0 0.00 0.05 0.04 88 1016.5
20170329024459 39 326 8.0 20.0 0.00 0.05 0.04 88 1016.4
20170329024000 39 330 9.0 14.0 0.00 0.05 0.04 88 1016.4
20170329023459 39 345 10.0 17.0 0.00 0.05 0.04 88 1016.2
20170329022959 39 342 9.0 20.0 0.00 0.05 0.04 89 1016.0
20170329022459 39 339 6.0 14.0 0.00 0.05 0.04 89 1015.8
20170329021959 39 343 9.0 16.0 0.00 0.05 0.04 89 1015.7
20170329021500 39 343 7.0 14.0 0.00 0.05 0.04 89 1015.5
20170329020959 39 327 9.0 17.0 0.00 0.05 0.04 89 1015.2
20170329020501 39 328 10.0 20.0 0.00 0.05 0.04 90 1015.2
20170329020000 39 333 6.0 16.0 0.00 0.05 0.04 90 1015.3
20170329015459 39 340 6.0 22.0 0.00 0.05 0.04 90 1015.4
20170329014959 39 351 8.0 14.0 0.00 0.05 0.04 91 1015.4
20170329014459 39 329 9.0 14.0 0.00 0.05 0.04 91 1015.4
20170329013959 39 334 7.0 14.0 0.00 0.05 0.04 91 1015.3
20170329013459 39 327 6.0 10.0 0.00 0.05 0.04 91 1015.3
20170329013000 39 337 6.0 16.0 0.00 0.05 0.04 91 1015.3
20170329012500 40 324 5.0 15.0 0.00 0.05 0.04 91 1015.3
20170329011959 40 326 7.0 17.0 0.00 0.05 0.04 91 1015.2
20170329011459 40 335 8.0 15.0 0.00 0.05 0.04 91 1015.1
20170329010959 40 322 6.0 12.0 0.00 0.05 0.04 91 1015.1
20170329010500 40 306 5.0 12.0 0.00 0.05 0.04 91 1014.9
20170329005959 40 350 6.0 14.0 0.00 0.05 0.04 91 1014.9
20170329005459 40 332 9.0 18.0 0.00 0.05 0.04 91 1014.9
20170329004959 40 336 4.0 14.0 0.00 0.05 0.04 91 1014.8
20170329004459 40 340 5.0 14.0 0.00 0.05 0.04 91 1014.5
20170329004000 40 331 6.0 14.0 0.00 0.05 0.04 91 1014.4
20170329003459 40 339 10.0 16.0 0.00 0.05 0.04 91 1014.3
20170329002959 40 326 5.0 12.0 0.00 0.05 0.04 91 1014.0
20170329002459 41 336 6.0 13.0 0.00 0.05 0.04 92 1013.8
20170329002000 41 325 6.0 14.0 0.00 0.05 0.04 92 1013.8
20170329001459 41 317 6.0 10.0 0.00 0.05 0.04 92 1013.6
20170329001000 41 311 7.0 12.0 0.00 0.05 0.04 92 1013.6
20170329000459 41 303 4.0 10.0 0.00 0.05 0.04 92 1013.4
20170328235959 41 326 6.0 13.0 0.00 0.05 0.04 92 1013.7
20170328235459 41 337 6.0 14.0 0.00 0.05 0.04 92 1013.7
20170328235000 41 326 7.0 16.0 0.00 0.05 0.04 92 1013.5
20170328234459 41 323 6.0 13.0 0.00 0.05 0.04 92 1013.4
20170328233959 41 330 5.0 12.0 0.00 0.05 0.04 92 1013.5
20170328233459 41 322 7.0 16.0 0.00 0.05 0.04 92 1013.4
20170328233000 41 326 7.0 13.0 0.00 0.05 0.04 93 1013.4
20170328232459 41 329 3.0 8.0 0.00 0.05 0.04 93 1013.3
20170328231959 41 309 2.0 5.0 0.00 0.05 0.04 93 1013.3
20170328231459 41 315 1.0 9.0 0.00 0.05 0.04 93 1013.2
20170328231000 41 307 3.0 6.0 0.00 0.05 0.04 93 1013.1
20170328230459 41 303 3.0 9.0 0.00 0.05 0.04 93 1013.0
20170328230000 41 287 2.0 6.0 0.00 0.05 0.04 93 1013.3
20170328225459 41 298 3.0 9.0 0.00 0.05 0.04 93 1013.3
20170328224959 41 292 2.0 8.0 0.00 0.05 0.04 93 1013.2
20170328224459 41 311 3.0 8.0 0.00 0.05 0.04 93 1013.2
20170328223959 41 294 1.0 6.0 0.01 0.05 0.04 93 1013.2
20170328223459 41 318 2.0 5.0 0.01 0.05 0.04 92 1013.1
20170328223000 41 310 3.0 8.0 0.01 0.05 0.04 92 1013.0
20170328222459 41 308 1.0 5.0 0.01 0.05 0.04 92 1012.8
20170328222000 41 317 4.0 10.0 0.01 0.05 0.04 92 1012.7
20170328221459 41 312 3.0 7.0 0.01 0.05 0.04 92 1012.6
20170328220959 41 308 2.0 9.0 0.01 0.05 0.04 92 1012.6
20170328220459 41 321 6.0 13.0 0.01 0.05 0.04 92 1012.4
20170328215959 41 317 5.0 9.0 0.01 0.05 0.04 92 1012.4
20170328215459 41 322 6.0 12.0 0.01 0.05 0.04 92 1012.4
20170328215000 42 315 7.0 13.0 0.01 0.05 0.04 92 1012.4
20170328214500 42 327 4.0 13.0 0.01 0.05 0.04 92 1012.4
20170328213959 42 310 7.0 13.0 0.00 0.04 0.03 91 1012.3
20170328213459 42 293 6.0 10.0 0.00 0.04 0.03 91 1012.2
20170328213000 42 309 6.0 10.0 0.00 0.04 0.03 91 1012.0
20170328212500 42 307 4.0 10.0 0.00 0.04 0.03 91 1012.1
20170328211959 42 325 5.0 14.0 0.00 0.04 0.03 91 1012.1
20170328211459 42 330 5.0 13.0 0.00 0.04 0.03 91 1012.1
20170328211000 42 349 6.0 12.0 0.00 0.04 0.03 91 1012.0
20170328210459 42 334 4.0 10.0 0.00 0.04 0.03 91 1011.9
20170328205959 42 328 4.0 10.0 0.00 0.04 0.03 91 1012.2
20170328205459 42 323 3.0 10.0 0.00 0.04 0.03 90 1012.2
20170328204959 42 338 6.0 10.0 0.00 0.04 0.03 90 1012.2
20170328204459 42 1 4.0 12.0 0.00 0.04 0.03 90 1012.2
20170328204000 42 321 5.0 9.0 0.00 0.04 0.03 90 1012.3
20170328203459 43 0 4.0 9.0 0.00 0.04 0.03 89 1012.2
20170328203000 43 307 5.0 9.0 0.00 0.04 0.03 89 1012.1
20170328202500 43 332 5.0 12.0 0.00 0.04 0.03 89 1012.1
20170328202000 43 330 5.0 12.0 0.00 0.04 0.03 88 1012.1
20170328201459 43 323 3.0 9.0 0.00 0.04 0.03 88 1012.1
20170328200959 43 318 6.0 13.0 0.00 0.04 0.03 87 1012.1
20170328200459 43 339 7.0 12.0 0.00 0.04 0.03 87 1012.1
20170328195959 43 296 6.0 12.0 0.00 0.04 0.03 86 1012.5
20170328195500 43 322 6.0 14.0 0.00 0.04 0.03 86 1012.5
20170328194959 43 344 5.0 12.0 0.00 0.04 0.03 85 1012.4
20170328194459 43 342 6.0 10.0 0.00 0.04 0.03 85 1012.3
20170328193959 43 339 4.0 9.0 0.00 0.04 0.03 84 1012.4
20170328193459 43 327 5.0 12.0 0.00 0.04 0.03 84 1012.2
20170328193000 43 336 5.0 12.0 0.00 0.04 0.03 83 1012.1
20170328192459 43 332 3.0 10.0 0.00 0.04 0.03 82 1012.1
20170328191959 43 330 6.0 13.0 0.00 0.04 0.03 82 1012.0
20170328191459 44 326 5.0 13.0 0.00 0.04 0.03 82 1011.9
20170328190959 44 346 6.0 12.0 0.00 0.04 0.03 82 1011.8
20170328190459 44 0 3.0 9.0 0.00 0.04 0.03 82 1011.8
20170328190000 44 333 7.0 15.0 0.00 0.04 0.03 81 1012.1
20170328185459 44 353 6.0 13.0 0.00 0.04 0.03 81 1012.0
20170328185000 44 333 8.0 20.0 0.00 0.04 0.03 80 1012.0
20170328184459 44 349 6.0 17.0 0.00 0.04 0.03 80 1011.9
20170328183959 44 325 7.0 17.0 0.00 0.04 0.03 80 1012.0
20170328183500 44 322 6.0 13.0 0.00 0.04 0.03 80 1011.9
20170328182959 44 307 5.0 12.0 0.00 0.04 0.03 80 1011.8
20170328182459 44 339 6.0 16.0 0.00 0.04 0.03 80 1012.1
20170328182000 44 357 6.0 13.0 0.00 0.04 0.03 80 1012.2
20170328181459 44 331 6.0 15.0 0.00 0.04 0.03 81 1012.0
20170328181000 44 343 4.0 12.0 0.00 0.04 0.03 81 1012.0
20170328180459 44 314 6.0 15.0 0.00 0.04 0.03 81 1011.9
20170328175959 44 348 9.0 14.0 0.00 0.04 0.03 81 1012.3
20170328175500 44 341 3.0 12.0 0.00 0.04 0.03 82 1012.2
20170328174959 45 333 7.0 15.0 0.00 0.04 0.03 82 1012.0
20170328174459 45 340 7.0 14.0 0.00 0.04 0.03 82 1011.9
20170328174000 45 305 9.0 14.0 0.00 0.04 0.03 82 1011.9
20170328173459 45 325 6.0 13.0 0.00 0.04 0.03 83 1012.0
20170328173000 45 312 5.0 14.0 0.00 0.04 0.03 84 1012.1
20170328172459 45 333 6.0 12.0 0.00 0.04 0.03 85 1012.0
20170328172000 44 323 5.0 12.0 0.00 0.04 0.03 85 1012.0
20170328171459 44 329 7.0 12.0 0.00 0.04 0.03 85 1012.2
20170328171000 44 314 5.0 10.0 0.00 0.04 0.03 86 1012.2
20170328170500 44 347 7.0 12.0 0.00 0.04 0.03 86 1012.1
20170328170000 44 335 6.0 13.0 0.00 0.04 0.03 87 1012.1
20170328165459 44 328 3.0 8.0 0.00 0.04 0.03 88 1012.1
20170328164959 44 332 3.0 10.0 0.00 0.04 0.03 88 1012.1
20170328164500 44 313 3.0 12.0 0.00 0.04 0.03 89 1012.2
20170328164000 43 329 3.0 9.0 0.00 0.04 0.03 89 1012.5
20170328163459 43 319 4.0 9.0 0.00 0.04 0.03 90 1012.3
20170328162959 43 300 5.0 12.0 0.00 0.04 0.03 91 1012.1
20170328162500 43 340 5.0 12.0 0.01 0.04 0.03 91 1012.0
20170328161959 43 334 3.0 8.0 0.01 0.04 0.03 92 1011.8
20170328161459 42 303 4.0 9.0 0.01 0.04 0.03 92 1011.9
20170328160959 42 300 3.0 9.0 0.01 0.04 0.03 91 1011.9
20170328160459 42 325 2.0 5.0 0.01 0.04 0.03 91 1011.9
20170328155959 42 346 2.0 3.0 0.01 0.04 0.03 91 1012.2
20170328155500 42 355 1.0 3.0 0.01 0.04 0.03 91 1011.9
20170328155000 42 354 3.0 9.0 0.01 0.04 0.03 91 1011.9
20170328154459 42 350 6.0 10.0 0.01 0.04 0.03 91 1011.7
20170328153959 42 349 3.0 7.0 0.02 0.04 0.03 91 1012.0
20170328153459 42 342 2.0 7.0 0.02 0.04 0.03 91 1012.0
20170328152959 42 335 3.0 6.0 0.02 0.04 0.03 91 1012.1
20170328152500 42 3 2.0 6.0 0.01 0.03 0.02 91 1012.1
20170328151959 42 1 3.0 5.0 0.02 0.03 0.02 91 1012.1
20170328151459 42 355 3.0 7.0 0.02 0.03 0.02 91 1012.2
20170328150959 42 326 5.0 10.0 0.02 0.03 0.02 91 1012.0
20170328150500 42 352 3.0 9.0 0.02 0.03 0.02 91 1012.0
20170328150000 42 308 2.0 6.0 0.02 0.03 0.02 91 1012.1
20170328145459 42 311 3.0 8.0 0.02 0.03 0.02 90 1011.9
20170328144959 42 323 4.0 10.0 0.02 0.03 0.02 90 1011.9
20170328144459 42 317 3.0 8.0 0.02 0.03 0.02 90 1011.8
20170328144000 42 343 3.0 12.0 0.01 0.02 0.01 90 1011.9
20170328143459 42 337 3.0 5.0 0.01 0.02 0.01 90 1011.8
20170328142959 42 356 5.0 10.0 0.01 0.02 0.01 90 1012.0
20170328142459 42 324 3.0 7.0 0.01 0.02 0.01 90 1012.0
20170328142000 42 321 2.0 5.0 0.00 0.01 0.00 89 1012.0
20170328141459 42 334 5.0 10.0 0.00 0.01 0.00 89 1012.0
20170328141000 42 313 2.0 9.0 0.00 0.01 0.00 89 1011.9
20170328140459 43 341 6.0 12.0 0.00 0.01 0.00 88 1012.0
20170328135959 43 346 2.0 7.0 0.00 0.01 0.00 88 1011.7
20170328135459 43 319 3.0 8.0 0.00 0.01 0.00 88 1011.7
20170328135000 43 343 6.0 12.0 0.00 0.01 0.00 87 1011.6
20170328134459 43 317 5.0 10.0 0.00 0.01 0.00 87 1011.6
20170328133959 43 334 2.0 5.0 0.00 0.01 0.00 87 1011.6
20170328133459 43 355 2.0 7.0 0.00 0.01 0.00 86 1011.5
20170328133000 43 2 2.0 9.0 0.00 0.01 0.00 86 1011.4
20170328132459 43 6 3.0 6.0 0.00 0.01 0.00 86 1011.4
20170328132000 43 3 2.0 8.0 0.00 0.01 0.00 86 1011.4
20170328131459 43 355 3.0 9.0 0.00 0.01 0.00 86 1011.3